Flight Track Log - Related Links

Times and Time Zones

All times are in EDT time to prevent confusion due to time zone crossing. See the CSN6303 flight status page for this flight to view local times or setup timezone preferences in your user account.

Time Position Orientation Groundspeed Altitude Reporting Facility
EDT Latitude Longitude Course Direction KTS MPH feet Rate Location/Type
Wed 05:56:00 AM 30.6690 114.2021 183° South  Level Estimated
Wed 05:57:00 AM 30.5543 114.1961 183° South  Level Estimated
Wed 05:58:00 AM 30.4396 114.1901 183° South  Level Estimated
Wed 05:59:00 AM 30.3248 114.1842 183° South  Level Estimated
Wed 06:00:00 AM 30.2101 114.1782 183° South  Level Estimated
Wed 06:01:00 AM 30.0954 114.1723 183° South  Level Estimated
Wed 06:02:00 AM 29.9806 114.1664 183° South  Level Estimated
Wed 06:03:00 AM 29.8659 114.1605 183° South  Level Estimated
Wed 06:04:00 AM 29.7512 114.1546 183° South  Level Estimated
Wed 06:05:00 AM 29.6365 114.1487 183° South  Level Estimated
Wed 06:06:00 AM 29.5217 114.1429 183° South  Level Estimated
Wed 06:07:00 AM 29.4070 114.1370 183° South  Level Estimated
Wed 06:08:00 AM 29.2923 114.1312 183° South  Level Estimated
Wed 06:09:00 AM 29.1775 114.1253 183° South  Level Estimated
Wed 06:10:00 AM 29.0628 114.1195 183° South  Level Estimated
Wed 06:11:00 AM 28.9481 114.1137 183° South  Level Estimated
Wed 06:12:00 AM 28.8333 114.1079 183° South  Level Estimated
Wed 06:13:00 AM 28.7186 114.1022 183° South  Level Estimated
Wed 06:14:00 AM 28.6039 114.0964 183° South  Level Estimated
Wed 06:15:00 AM 28.4891 114.0907 183° South  Level Estimated
Wed 06:16:00 AM 28.3744 114.0849 183° South  Level Estimated
Wed 06:17:00 AM 28.2596 114.0792 183° South  Level Estimated
Wed 06:18:00 AM 28.1449 114.0735 183° South  Level Estimated
Wed 06:19:00 AM 28.0302 114.0678 183° South  Level Estimated
Wed 06:20:00 AM 27.9154 114.0621 183° South  Level Estimated
Wed 06:21:00 AM 27.8007 114.0564 183° South  Level Estimated
Wed 06:22:00 AM 27.6859 114.0508 183° South  Level Estimated
Wed 06:23:00 AM 27.5712 114.0451 182° South  Level Estimated
Wed 06:24:00 AM 27.4565 114.0395 182° South  Level Estimated
Wed 06:25:00 AM 27.3417 114.0339 182° South  Level Estimated
Wed 06:26:00 AM 27.2270 114.0282 182° South  Level Estimated
Wed 06:27:00 AM 27.1122 114.0226 182° South  Level Estimated
Wed 06:28:00 AM 26.9975 114.0171 182° South  Level Estimated
Wed 06:29:00 AM 26.8828 114.0115 182° South  Level Estimated
Wed 06:30:00 AM 26.7680 114.0059 182° South  Level Estimated
Wed 06:31:00 AM 26.6533 114.0003 182° South  Level Estimated
Wed 06:32:00 AM 26.5385 113.9948 182° South  Level Estimated
Wed 06:33:00 AM 26.4238 113.9893 182° South  Level Estimated
Wed 06:34:00 AM 26.3091 113.9837 182° South  Level Estimated
Wed 06:35:00 AM 26.1943 113.9782 182° South  Level Estimated
Wed 06:36:00 AM 26.0796 113.9727 182° South  Level Estimated
Wed 06:37:00 AM 25.9648 113.9672 182° South  Level Estimated
Wed 06:38:00 AM 25.8501 113.9617 182° South  Level Estimated
Wed 06:39:00 AM 25.7354 113.9563 182° South  Level Estimated
Wed 06:40:00 AM 25.6206 113.9508 182° South  Level Estimated
Wed 06:41:00 AM 25.5059 113.9454 182° South  Level Estimated
Wed 06:42:00 AM 25.3911 113.9399 182° South  Level Estimated
Wed 06:43:00 AM 25.2764 113.9345 182° South  Level Estimated
Wed 06:44:00 AM 25.1617 113.9291 182° South  Level Estimated
Wed 06:45:00 AM 25.0469 113.9237 182° South  Level Estimated
Wed 06:46:00 AM 24.9322 113.9183 182° South  Level Estimated
Wed 06:47:00 AM 24.8174 113.9129 182° South  Level Estimated
Wed 06:48:00 AM 24.7027 113.9075 182° South  Level Estimated
Wed 06:49:00 AM 24.5880 113.9021 182° South  Level Estimated
Wed 06:50:00 AM 24.4732 113.8968 182° South  Level Estimated
Wed 06:51:00 AM 24.3585 113.8914 182° South  Level Estimated
Wed 06:52:00 AM 24.2437 113.8861 182° South  Level Estimated
Wed 06:53:00 AM 24.1290 113.8808 182° South  Level Estimated
Wed 06:54:00 AM 24.0143 113.8754 182° South  Level Estimated
Wed 06:55:00 AM 23.8995 113.8701 182° South  Level Estimated
Wed 06:56:00 AM 23.7848 113.8648 182° South  Level Estimated
Wed 06:57:00 AM 23.6700 113.8595 182° South  Level Estimated
Wed 06:58:00 AM 23.5553 113.8542 182° South  Level Estimated
Wed 06:59:00 AM 23.4405 113.8490 182° South  Level Estimated
Wed 07:00:00 AM 23.3258 113.8437 182° South  Level Estimated
Wed 07:01:00 AM 23.2111 113.8385 182° South  Level Estimated
Wed 07:02:00 AM 23.0963 113.8332 182° South  Level Estimated
Wed 07:03:00 AM 22.9816 113.8280 182° South  Level Estimated
Wed 07:04:00 AM 22.8668 113.8227 182° South  Level Estimated
Wed 07:05:00 AM 22.7521 113.8175 182° South  Level Estimated
Wed 07:06:00 AM 22.6395 113.8124 182° South  Level Estimated
Wed 07:07:00 AM 22.6395 113.8124 25° Northeast  Level Estimated
Wed 07:08:00 AM 22.6395 113.8124 25° Northeast  Level Estimated
Wed 07:09:00 AM 22.6395 113.8124 25° Northeast  Level Estimated
Wed 07:10:00 AM 22.6395 113.8124 25° Northeast  Level Estimated
Wed 07:11:00 AM 22.6395 113.8124 25° Northeast  Level Estimated
Wed 07:12:00 AM 22.6395 113.8124 25° Northeast  Level Estimated
Wed 07:13:00 AM 22.6395 113.8124 25° Northeast  Level Estimated
Wed 07:14:00 AM 22.6395 113.8124 25° Northeast  Level Estimated
Wed 07:15:00 AM 22.6395 113.8124 25° Northeast  Level Estimated
Wed 07:16:00 AM 22.6395 113.8124 25° Northeast  Level Estimated
Wed 07:17:00 AM 22.6395 113.8124 25° Northeast  Level Estimated
Wed 07:18:00 AM 22.6395 113.8124 25° Northeast  Level Estimated
Wed 07:19:00 AM 22.6395 113.8124 25° Northeast  Level Estimated
Wed 07:20:00 AM 22.6395 113.8124 25° Northeast  Level Estimated
Wed 07:21:00 AM 22.6395 113.8124 25° Northeast  Level Estimated

Login

Don't have an account? Register now (free) for customized features, flight alerts, and more!